sensor_id;sensor_type;location;lat;lon;timestamp;pressure;altitude;pressure_sealevel;temperature;humidity
48200;BME280;33990;44.602;10.976;2023-05-08T00:01:38;101137.19;;;22.57;61.94
48200;BME280;33990;44.602;10.976;2023-05-08T00:04:06;101137.19;;;22.57;61.96
48200;BME280;33990;44.602;10.976;2023-05-08T00:06:33;101142.56;;;22.57;61.80
48200;BME280;33990;44.602;10.976;2023-05-08T00:09:00;101144.41;;;22.57;61.96
48200;BME280;33990;44.602;10.976;2023-05-08T00:11:27;101147.13;;;22.57;61.94
48200;BME280;33990;44.602;10.976;2023-05-08T00:13:55;101149.81;;;22.57;61.85
48200;BME280;33990;44.602;10.976;2023-05-08T00:16:22;101154.34;;;22.56;61.86
48200;BME280;33990;44.602;10.976;2023-05-08T00:18:49;101165.13;;;22.56;61.81
48200;BME280;33990;44.602;10.976;2023-05-08T00:21:17;101165.13;;;22.56;61.68
48200;BME280;33990;44.602;10.976;2023-05-08T00:23:44;101158.03;;;22.55;61.82
48200;BME280;33990;44.602;10.976;2023-05-08T00:26:11;101163.31;;;22.57;61.82
48200;BME280;33990;44.602;10.976;2023-05-08T00:28:39;101157.03;;;22.56;61.92
48200;BME280;33990;44.602;10.976;2023-05-08T00:31:06;101164.28;;;22.56;61.91
48200;BME280;33990;44.602;10.976;2023-05-08T00:33:34;101158.03;;;22.55;61.75
48200;BME280;33990;44.602;10.976;2023-05-08T00:36:02;101158.03;;;22.55;61.74
48200;BME280;33990;44.602;10.976;2023-05-08T00:38:34;101161.59;;;22.56;61.65
48200;BME280;33990;44.602;10.976;2023-05-08T00:41:02;101158.88;;;22.56;61.59
48200;BME280;33990;44.602;10.976;2023-05-08T00:43:30;101158.03;;;22.55;61.64
48200;BME280;33990;44.602;10.976;2023-05-08T00:45:59;101158.03;;;22.55;61.67
48200;BME280;33990;44.602;10.976;2023-05-08T00:48:29;101156.19;;;22.56;61.62
48200;BME280;33990;44.602;10.976;2023-05-08T00:50:58;101149.94;;;22.55;61.64
48200;BME280;33990;44.602;10.976;2023-05-08T00:53:29;101153.50;;;22.56;61.59
48200;BME280;33990;44.602;10.976;2023-05-08T00:55:58;101158.03;;;22.55;61.49
48200;BME280;33990;44.602;10.976;2023-05-08T00:58:26;101158.03;;;22.55;61.52
48200;BME280;33990;44.602;10.976;2023-05-08T01:00:55;101158.88;;;22.56;61.69
48200;BME280;33990;44.602;10.976;2023-05-08T01:03:23;101165.13;;;22.56;61.78
48200;BME280;33990;44.602;10.976;2023-05-08T01:05:52;101163.44;;;22.55;61.61
48200;BME280;33990;44.602;10.976;2023-05-08T01:08:20;101163.44;;;22.55;61.75
48200;BME280;33990;44.602;10.976;2023-05-08T01:13:51;101167.81;;;22.56;61.53
48200;BME280;33990;44.602;10.976;2023-05-08T01:16:31;101160.72;;;22.55;61.73
48200;BME280;33990;44.602;10.976;2023-05-08T01:19:39;101170.53;;;22.56;61.55
48200;BME280;33990;44.602;10.976;2023-05-08T01:32:42;101179.63;;;22.55;61.90
48200;BME280;33990;44.602;10.976;2023-05-08T01:37:55;101188.56;;;22.56;61.83
48200;BME280;33990;44.602;10.976;2023-05-08T01:40:34;101185.03;;;22.55;61.87
48200;BME280;33990;44.602;10.976;2023-05-08T01:43:28;101184.00;;;22.56;62.03
48200;BME280;33990;44.602;10.976;2023-05-08T01:45:55;101188.56;;;22.56;61.93
48200;BME280;33990;44.602;10.976;2023-05-08T01:48:32;101193.97;;;22.56;61.86
48200;BME280;33990;44.602;10.976;2023-05-08T01:51:15;101193.97;;;22.56;62.11
48200;BME280;33990;44.602;10.976;2023-05-08T01:53:48;101200.22;;;22.56;61.96
48200;BME280;33990;44.602;10.976;2023-05-08T01:56:21;101195.81;;;22.55;61.76
48200;BME280;33990;44.602;10.976;2023-05-08T01:58:52;101201.22;;;22.55;62.08
48200;BME280;33990;44.602;10.976;2023-05-08T02:01:22;101200.38;;;22.55;62.06
48200;BME280;33990;44.602;10.976;2023-05-08T02:03:51;101199.50;;;22.54;61.73
48200;BME280;33990;44.602;10.976;2023-05-08T02:06:20;101199.50;;;22.54;61.77
48200;BME280;33990;44.602;10.976;2023-05-08T02:08:49;101200.38;;;22.55;61.50
48200;BME280;33990;44.602;10.976;2023-05-08T02:11:18;101205.75;;;22.55;61.42
48200;BME280;33990;44.602;10.976;2023-05-08T02:13:47;101206.75;;;22.54;61.51
48200;BME280;33990;44.602;10.976;2023-05-08T02:16:16;101204.91;;;22.54;61.53
48200;BME280;33990;44.602;10.976;2023-05-08T02:18:49;101198.66;;;22.54;61.42
48200;BME280;33990;44.602;10.976;2023-05-08T02:21:17;101195.13;;;22.53;61.35
48200;BME280;33990;44.602;10.976;2023-05-08T02:23:46;101200.53;;;22.53;61.38
48200;BME280;33990;44.602;10.976;2023-05-08T02:26:14;101193.28;;;22.54;61.40
48200;BME280;33990;44.602;10.976;2023-05-08T02:28:44;101200.53;;;22.53;61.32
48200;BME280;33990;44.602;10.976;2023-05-08T02:31:12;101192.41;;;22.53;61.45
48200;BME280;33990;44.602;10.976;2023-05-08T02:33:41;101191.56;;;22.53;61.45
48200;BME280;33990;44.602;10.976;2023-05-08T02:36:12;101186.19;;;22.53;61.42
48200;BME280;33990;44.602;10.976;2023-05-08T02:38:43;101192.41;;;22.53;61.23
48200;BME280;33990;44.602;10.976;2023-05-08T02:41:12;101189.72;;;22.53;61.35
48200;BME280;33990;44.602;10.976;2023-05-08T02:43:41;101195.25;;;22.52;61.18
48200;BME280;33990;44.602;10.976;2023-05-08T02:46:14;101196.97;;;22.53;61.35
48200;BME280;33990;44.602;10.976;2023-05-08T02:48:58;101197.81;;;22.53;61.31
48200;BME280;33990;44.602;10.976;2023-05-08T02:51:42;101196.97;;;22.53;61.18
48200;BME280;33990;44.602;10.976;2023-05-08T02:57:22;101192.41;;;22.53;61.29
48200;BME280;33990;44.602;10.976;2023-05-08T03:00:04;101185.31;;;22.52;61.08
48200;BME280;33990;44.602;10.976;2023-05-08T03:02:39;101189.72;;;22.53;61.23
48200;BME280;33990;44.602;10.976;2023-05-08T03:05:13;101182.59;;;22.52;61.27
48200;BME280;33990;44.602;10.976;2023-05-08T03:07:42;101190.69;;;22.52;61.23
48200;BME280;33990;44.602;10.976;2023-05-08T03:10:14;101183.59;;;22.51;61.25
48200;BME280;33990;44.602;10.976;2023-05-08T03:12:45;101193.41;;;22.52;61.18
48200;BME280;33990;44.602;10.976;2023-05-08T03:15:31;101186.19;;;22.53;61.22
48200;BME280;33990;44.602;10.976;2023-05-08T03:18:05;101191.56;;;22.53;61.14
48200;BME280;33990;44.602;10.976;2023-05-08T03:20:38;101200.66;;;22.52;61.04
48200;BME280;33990;44.602;10.976;2023-05-08T03:23:08;101192.53;;;22.52;61.16
48200;BME280;33990;44.602;10.976;2023-05-08T03:25:36;101198.78;;;22.52;61.23
48200;BME280;33990;44.602;10.976;2023-05-08T03:28:06;101201.50;;;22.52;61.27
48200;BME280;33990;44.602;10.976;2023-05-08T03:30:39;101195.25;;;22.52;61.24
48200;BME280;33990;44.602;10.976;2023-05-08T03:33:10;101200.66;;;22.52;61.25
48200;BME280;33990;44.602;10.976;2023-05-08T03:35:38;101201.50;;;22.52;61.18
48200;BME280;33990;44.602;10.976;2023-05-08T03:38:07;101201.66;;;22.51;61.20
48200;BME280;33990;44.602;10.976;2023-05-08T03:40:35;101200.66;;;22.52;61.32
48200;BME280;33990;44.602;10.976;2023-05-08T03:43:08;101199.78;;;22.51;61.19
48200;BME280;33990;44.602;10.976;2023-05-08T03:45:39;101206.03;;;22.52;61.29
48200;BME280;33990;44.602;10.976;2023-05-08T03:48:08;101205.19;;;22.51;61.29
48200;BME280;33990;44.602;10.976;2023-05-08T03:50:37;101209.75;;;22.51;61.09
48200;BME280;33990;44.602;10.976;2023-05-08T03:53:08;101210.59;;;22.51;61.04
48200;BME280;33990;44.602;10.976;2023-05-08T03:55:35;101218.69;;;22.51;61.14
48200;BME280;33990;44.602;10.976;2023-05-08T04:01:11;101215.97;;;22.51;60.98
48200;BME280;33990;44.602;10.976;2023-05-08T04:04:37;101222.38;;;22.50;60.82
48200;BME280;33990;44.602;10.976;2023-05-08T04:12:52;101227.78;;;22.50;61.10
48200;BME280;33990;44.602;10.976;2023-05-08T04:15:26;101227.78;;;22.50;61.03
48200;BME280;33990;44.602;10.976;2023-05-08T04:18:03;101234.19;;;22.49;61.16
48200;BME280;33990;44.602;10.976;2023-05-08T04:20:32;101243.97;;;22.50;60.95
48200;BME280;33990;44.602;10.976;2023-05-08T04:23:01;101241.28;;;22.50;61.09
48200;BME280;33990;44.602;10.976;2023-05-08T04:25:32;101234.19;;;22.49;60.92
48200;BME280;33990;44.602;10.976;2023-05-08T04:28:02;101240.41;;;22.50;61.07
48200;BME280;33990;44.602;10.976;2023-05-08T04:30:30;101245.81;;;22.50;61.03
48200;BME280;33990;44.602;10.976;2023-05-08T04:33:01;101250.38;;;22.49;61.04
48200;BME280;33990;44.602;10.976;2023-05-08T04:35:29;101245.81;;;22.50;61.21
48200;BME280;33990;44.602;10.976;2023-05-08T04:37:57;101249.53;;;22.49;61.07
48200;BME280;33990;44.602;10.976;2023-05-08T04:40:25;101250.38;;;22.49;61.13
48200;BME280;33990;44.602;10.976;2023-05-08T04:42:53;101249.53;;;22.49;61.25
48200;BME280;33990;44.602;10.976;2023-05-08T04:45:21;101255.75;;;22.49;61.30
48200;BME280;33990;44.602;10.976;2023-05-08T04:47:49;101249.38;;;22.50;60.99
48200;BME280;33990;44.602;10.976;2023-05-08T04:50:16;101255.75;;;22.49;60.95
48200;BME280;33990;44.602;10.976;2023-05-08T04:52:44;101258.47;;;22.49;60.95
48200;BME280;33990;44.602;10.976;2023-05-08T04:55:11;101267.41;;;22.50;61.16
48200;BME280;33990;44.602;10.976;2023-05-08T04:57:39;101263.84;;;22.49;60.90
48200;BME280;33990;44.602;10.976;2023-05-08T05:00:07;101274.66;;;22.49;61.13
48200;BME280;33990;44.602;10.976;2023-05-08T05:02:38;101271.94;;;22.49;61.27
48200;BME280;33990;44.602;10.976;2023-05-08T05:05:06;101275.50;;;22.50;61.14
48200;BME280;33990;44.602;10.976;2023-05-08T05:07:33;101264.81;;;22.48;60.89
48200;BME280;33990;44.602;10.976;2023-05-08T05:10:01;101279.19;;;22.49;61.06
48200;BME280;33990;44.602;10.976;2023-05-08T05:12:31;101275.50;;;22.50;60.98
48200;BME280;33990;44.602;10.976;2023-05-08T05:14:58;101283.72;;;22.48;60.79
48200;BME280;33990;44.602;10.976;2023-05-08T05:17:29;101283.72;;;22.48;60.78
48200;BME280;33990;44.602;10.976;2023-05-08T05:19:57;101289.09;;;22.48;60.83
48200;BME280;33990;44.602;10.976;2023-05-08T05:22:26;101291.81;;;22.48;61.00
48200;BME280;33990;44.602;10.976;2023-05-08T05:24:54;101296.22;;;22.49;60.87
48200;BME280;33990;44.602;10.976;2023-05-08T05:27:22;101290.84;;;22.49;60.97
48200;BME280;33990;44.602;10.976;2023-05-08T05:29:51;101289.09;;;22.48;60.79
48200;BME280;33990;44.602;10.976;2023-05-08T05:32:18;101290.09;;;22.47;60.91
48200;BME280;33990;44.602;10.976;2023-05-08T05:34:47;101291.81;;;22.48;60.70
48200;BME280;33990;44.602;10.976;2023-05-08T05:37:15;101286.41;;;22.48;60.89
48200;BME280;33990;44.602;10.976;2023-05-08T05:39:42;101290.84;;;22.49;60.78
48200;BME280;33990;44.602;10.976;2023-05-08T05:42:10;101290.00;;;22.49;60.92
48200;BME280;33990;44.602;10.976;2023-05-08T05:44:37;101297.19;;;22.48;60.75
48200;BME280;33990;44.602;10.976;2023-05-08T05:47:05;101290.97;;;22.48;60.95
48200;BME280;33990;44.602;10.976;2023-05-08T05:49:37;101298.09;;;22.49;61.14
48200;BME280;33990;44.602;10.976;2023-05-08T05:52:06;101300.78;;;22.49;61.12
48200;BME280;33990;44.602;10.976;2023-05-08T05:54:34;101303.47;;;22.49;60.82
48200;BME280;33990;44.602;10.976;2023-05-08T05:57:01;101302.59;;;22.48;60.98
48200;BME280;33990;44.602;10.976;2023-05-08T05:59:29;101298.94;;;22.49;61.15
48200;BME280;33990;44.602;10.976;2023-05-08T06:01:56;101300.78;;;22.49;61.07
48200;BME280;33990;44.602;10.976;2023-05-08T06:04:23;101309.72;;;22.49;61.15
48200;BME280;33990;44.602;10.976;2023-05-08T06:06:51;101309.72;;;22.49;61.00
48200;BME280;33990;44.602;10.976;2023-05-08T06:09:18;101313.38;;;22.48;59.95
48200;BME280;33990;44.602;10.976;2023-05-08T06:11:46;101307.44;;;22.44;59.14
48200;BME280;33990;44.602;10.976;2023-05-08T06:14:13;101308.00;;;22.38;59.09
48200;BME280;33990;44.602;10.976;2023-05-08T06:16:40;101309.28;;;22.34;59.20
48200;BME280;33990;44.602;10.976;2023-05-08T06:19:07;101311.38;;;22.31;59.45
48200;BME280;33990;44.602;10.976;2023-05-08T06:21:35;101316.94;;;22.29;59.60
48200;BME280;33990;44.602;10.976;2023-05-08T06:24:03;101322.59;;;22.26;59.49
48200;BME280;33990;44.602;10.976;2023-05-08T06:26:32;101319.06;;;22.26;60.02
48200;BME280;33990;44.602;10.976;2023-05-08T06:28:59;101315.38;;;22.27;60.22
48200;BME280;33990;44.602;10.976;2023-05-08T06:31:27;101313.66;;;22.26;60.11
48200;BME280;33990;44.602;10.976;2023-05-08T06:33:55;101303.03;;;22.24;60.30
48200;BME280;33990;44.602;10.976;2023-05-08T06:36:22;101316.50;;;22.24;59.82
48200;BME280;33990;44.602;10.976;2023-05-08T06:38:49;101322.88;;;22.23;59.62
48200;BME280;33990;44.602;10.976;2023-05-08T06:41:16;101312.94;;;22.24;59.85
48200;BME280;33990;44.602;10.976;2023-05-08T06:43:44;101319.22;;;22.24;59.80
48200;BME280;33990;44.602;10.976;2023-05-08T06:46:11;101317.38;;;22.25;59.71
48200;BME280;33990;44.602;10.976;2023-05-08T06:48:38;101310.13;;;22.25;60.07
48200;BME280;33990;44.602;10.976;2023-05-08T06:51:06;101314.50;;;22.26;59.60
48200;BME280;33990;44.602;10.976;2023-05-08T06:53:33;101311.66;;;22.28;59.84
48200;BME280;33990;44.602;10.976;2023-05-08T06:56:00;101309.84;;;22.28;60.00
48200;BME280;33990;44.602;10.976;2023-05-08T06:58:27;101309.53;;;22.31;59.51
48200;BME280;33990;44.602;10.976;2023-05-08T07:01:00;101299.59;;;22.32;59.61
48200;BME280;33990;44.602;10.976;2023-05-08T07:03:27;101304.88;;;22.33;59.93
48200;BME280;33990;44.602;10.976;2023-05-08T07:05:55;101302.03;;;22.35;58.79
48200;BME280;33990;44.602;10.976;2023-05-08T07:08:22;101303.72;;;22.36;59.01
48200;BME280;33990;44.602;10.976;2023-05-08T07:10:49;101307.41;;;22.35;58.92
48200;BME280;33990;44.602;10.976;2023-05-08T07:13:16;101301.03;;;22.36;58.77
48200;BME280;33990;44.602;10.976;2023-05-08T07:15:47;101304.44;;;22.38;58.64
48200;BME280;33990;44.602;10.976;2023-05-08T07:18:15;101312.28;;;22.41;58.81
48200;BME280;33990;44.602;10.976;2023-05-08T07:20:42;101313.13;;;22.41;58.32
48200;BME280;33990;44.602;10.976;2023-05-08T07:23:09;101314.66;;;22.44;58.91
48200;BME280;33990;44.602;10.976;2023-05-08T07:25:37;101311.84;;;22.45;58.57
48200;BME280;33990;44.602;10.976;2023-05-08T07:28:04;101307.16;;;22.48;58.34
48200;BME280;33990;44.602;10.976;2023-05-08T07:30:31;101322.06;;;22.42;57.74
48200;BME280;33990;44.602;10.976;2023-05-08T07:32:59;101324.59;;;22.34;58.21
48200;BME280;33990;44.602;10.976;2023-05-08T07:35:27;101320.91;;;22.25;57.82
48200;BME280;33990;44.602;10.976;2023-05-08T07:37:55;101324.41;;;22.16;57.94
48200;BME280;33990;44.602;10.976;2023-05-08T07:40:22;101332.66;;;22.14;58.48
48200;BME280;33990;44.602;10.976;2023-05-08T07:42:50;101330.69;;;22.16;58.56
48200;BME280;33990;44.602;10.976;2023-05-08T07:45:17;101331.13;;;22.21;58.60
48200;BME280;33990;44.602;10.976;2023-05-08T07:47:52;101317.94;;;22.28;58.82
48200;BME280;33990;44.602;10.976;2023-05-08T07:50:20;101319.38;;;22.32;58.83
48200;BME280;33990;44.602;10.976;2023-05-08T07:52:47;101327.03;;;22.37;58.76
48200;BME280;33990;44.602;10.976;2023-05-08T07:55:17;101323.06;;;22.41;58.84
48200;BME280;33990;44.602;10.976;2023-05-08T07:57:44;101321.06;;;22.43;58.59
48200;BME280;33990;44.602;10.976;2023-05-08T08:00:13;101323.50;;;22.46;58.78
48200;BME280;33990;44.602;10.976;2023-05-08T08:02:43;101319.78;;;22.47;58.43
48200;BME280;33990;44.602;10.976;2023-05-08T08:05:11;101326.88;;;22.48;58.07
48200;BME280;33990;44.602;10.976;2023-05-08T08:07:39;101324.19;;;22.48;57.29
48200;BME280;33990;44.602;10.976;2023-05-08T08:10:06;101321.38;;;22.50;57.38
48200;BME280;33990;44.602;10.976;2023-05-08T08:12:34;101321.22;;;22.51;57.26
48200;BME280;33990;44.602;10.976;2023-05-08T08:15:02;101327.34;;;22.53;57.70
48200;BME280;33990;44.602;10.976;2023-05-08T08:17:29;101322.78;;;22.54;57.84
48200;BME280;33990;44.602;10.976;2023-05-08T08:19:57;101328.75;;;22.57;58.11
48200;BME280;33990;44.602;10.976;2023-05-08T08:22:25;101330.47;;;22.58;58.01
48200;BME280;33990;44.602;10.976;2023-05-08T08:24:55;101330.31;;;22.60;58.05
48200;BME280;33990;44.602;10.976;2023-05-08T08:27:23;101328.44;;;22.60;57.94
48200;BME280;33990;44.602;10.976;2023-05-08T08:29:50;101330.19;;;22.61;58.19
48200;BME280;33990;44.602;10.976;2023-05-08T08:32:30;101335.44;;;22.63;58.06
48200;BME280;33990;44.602;10.976;2023-05-08T08:34:58;101336.28;;;22.63;58.05
48200;BME280;33990;44.602;10.976;2023-05-08T08:37:25;101342.41;;;22.65;57.97
48200;BME280;33990;44.602;10.976;2023-05-08T08:39:53;101341.41;;;22.66;58.12
48200;BME280;33990;44.602;10.976;2023-05-08T08:42:20;101338.69;;;22.66;58.15
48200;BME280;33990;44.602;10.976;2023-05-08T08:44:47;101333.31;;;22.66;58.08
48200;BME280;33990;44.602;10.976;2023-05-08T08:47:15;101328.75;;;22.67;58.07
48200;BME280;33990;44.602;10.976;2023-05-08T08:49:49;101328.75;;;22.67;58.41
48200;BME280;33990;44.602;10.976;2023-05-08T08:54:55;101331.44;;;22.67;58.37
48200;BME280;33990;44.602;10.976;2023-05-08T08:57:26;101327.75;;;22.68;59.00
48200;BME280;33990;44.602;10.976;2023-05-08T08:59:54;101329.59;;;22.67;58.90
48200;BME280;33990;44.602;10.976;2023-05-08T09:02:22;101334.00;;;22.68;59.41
48200;BME280;33990;44.602;10.976;2023-05-08T09:04:50;101331.44;;;22.67;59.08
48200;BME280;33990;44.602;10.976;2023-05-08T09:07:18;101332.28;;;22.67;59.24
48200;BME280;33990;44.602;10.976;2023-05-08T09:09:45;101328.75;;;22.67;59.92
48200;BME280;33990;44.602;10.976;2023-05-08T09:12:13;101337.84;;;22.66;59.61
48200;BME280;33990;44.602;10.976;2023-05-08T09:14:41;101329.88;;;22.64;60.18
48200;BME280;33990;44.602;10.976;2023-05-08T09:17:08;101330.75;;;22.65;60.78
48200;BME280;33990;44.602;10.976;2023-05-08T09:19:36;101339.81;;;22.64;60.34
48200;BME280;33990;44.602;10.976;2023-05-08T09:22:04;101355.16;;;22.63;61.15
48200;BME280;33990;44.602;10.976;2023-05-08T09:24:57;101338.13;;;22.63;61.47
48200;BME280;33990;44.602;10.976;2023-05-08T09:27:26;101338.97;;;22.63;62.14
48200;BME280;33990;44.602;10.976;2023-05-08T09:30:08;101340.97;;;22.61;61.03
48200;BME280;33990;44.602;10.976;2023-05-08T09:32:41;101349.78;;;22.63;61.05
48200;BME280;33990;44.602;10.976;2023-05-08T09:35:10;101339.13;;;22.62;59.51
48200;BME280;33990;44.602;10.976;2023-05-08T09:37:39;101347.22;;;22.62;60.99
48200;BME280;33990;44.602;10.976;2023-05-08T09:40:18;101349.91;;;22.62;60.43
48200;BME280;33990;44.602;10.976;2023-05-08T09:42:46;101353.47;;;22.62;61.24
48200;BME280;33990;44.602;10.976;2023-05-08T09:45:30;101351.78;;;22.61;61.04
48200;BME280;33990;44.602;10.976;2023-05-08T09:47:58;101354.47;;;22.61;59.63
48200;BME280;33990;44.602;10.976;2023-05-08T09:50:25;101350.78;;;22.62;59.88
48200;BME280;33990;44.602;10.976;2023-05-08T09:52:54;101356.16;;;22.62;59.74
48200;BME280;33990;44.602;10.976;2023-05-08T09:55:21;101355.16;;;22.63;59.50
48200;BME280;33990;44.602;10.976;2023-05-08T09:57:58;101359.72;;;22.63;60.05
48200;BME280;33990;44.602;10.976;2023-05-08T10:00:27;101364.09;;;22.64;60.03
48200;BME280;33990;44.602;10.976;2023-05-08T10:03:02;101364.25;;;22.62;59.67
48200;BME280;33990;44.602;10.976;2023-05-08T10:05:31;101375.06;;;22.62;57.97
48200;BME280;33990;44.602;10.976;2023-05-08T10:08:23;101372.19;;;22.64;60.98
48200;BME280;33990;44.602;10.976;2023-05-08T10:10:52;101367.97;;;22.61;59.35
48200;BME280;33990;44.602;10.976;2023-05-08T10:13:19;101366.22;;;22.60;59.03
48200;BME280;33990;44.602;10.976;2023-05-08T10:15:50;101360.00;;;22.60;58.21
48200;BME280;33990;44.602;10.976;2023-05-08T10:18:23;101364.41;;;22.61;57.94
48200;BME280;33990;44.602;10.976;2023-05-08T10:20:55;101353.75;;;22.59;57.99
48200;BME280;33990;44.602;10.976;2023-05-08T10:23:25;101355.44;;;22.60;58.29
48200;BME280;33990;44.602;10.976;2023-05-08T10:25:55;101346.50;;;22.60;58.12
48200;BME280;33990;44.602;10.976;2023-05-08T10:28:41;101348.34;;;22.59;57.87
48200;BME280;33990;44.602;10.976;2023-05-08T10:31:11;101343.78;;;22.60;57.76
48200;BME280;33990;44.602;10.976;2023-05-08T10:33:43;101350.03;;;22.60;58.28
48200;BME280;33990;44.602;10.976;2023-05-08T10:36:11;101351.78;;;22.61;57.40
48200;BME280;33990;44.602;10.976;2023-05-08T10:38:40;101350.03;;;22.60;59.81
48200;BME280;33990;44.602;10.976;2023-05-08T10:41:09;101354.47;;;22.61;59.31
48200;BME280;33990;44.602;10.976;2023-05-08T10:43:40;101348.22;;;22.61;58.55
48200;BME280;33990;44.602;10.976;2023-05-08T10:46:35;101337.56;;;22.59;57.71
48200;BME280;33990;44.602;10.976;2023-05-08T10:49:30;101340.97;;;22.61;59.26
48200;BME280;33990;44.602;10.976;2023-05-08T10:57:15;101341.81;;;22.62;57.77
48200;BME280;33990;44.602;10.976;2023-05-08T10:59:46;101341.81;;;22.62;57.76
48200;BME280;33990;44.602;10.976;2023-05-08T11:02:13;101330.19;;;22.61;57.82
48200;BME280;33990;44.602;10.976;2023-05-08T11:04:41;101331.88;;;22.62;58.17
48200;BME280;33990;44.602;10.976;2023-05-08T11:07:10;101331.88;;;22.62;58.99
48200;BME280;33990;44.602;10.976;2023-05-08T11:14:53;101326.75;;;22.59;58.69
48200;BME280;33990;44.602;10.976;2023-05-08T11:17:22;101324.06;;;22.59;58.42
48200;BME280;33990;44.602;10.976;2023-05-08T11:19:58;101321.34;;;22.59;57.97
48200;BME280;33990;44.602;10.976;2023-05-08T11:22:28;101315.97;;;22.59;57.60
48200;BME280;33990;44.602;10.976;2023-05-08T11:25:08;101322.06;;;22.52;56.72
48200;BME280;33990;44.602;10.976;2023-05-08T11:27:36;101311.41;;;22.50;57.64
48200;BME280;33990;44.602;10.976;2023-05-08T11:35:50;101300.34;;;22.53;57.87
48200;BME280;33990;44.602;10.976;2023-05-08T11:38:25;101293.97;;;22.54;58.58
48200;BME280;33990;44.602;10.976;2023-05-08T11:46:05;101299.34;;;22.54;58.43
48200;BME280;33990;44.602;10.976;2023-05-08T11:48:34;101301.03;;;22.55;58.00
48200;BME280;33990;44.602;10.976;2023-05-08T11:51:02;101296.50;;;22.56;57.43
48200;BME280;33990;44.602;10.976;2023-05-08T11:53:30;101301.91;;;22.56;58.75
48200;BME280;33990;44.602;10.976;2023-05-08T11:55:58;101299.34;;;22.54;57.91
48200;BME280;33990;44.602;10.976;2023-05-08T11:58:26;101295.22;;;22.50;57.22
48200;BME280;33990;44.602;10.976;2023-05-08T12:00:54;101297.19;;;22.48;57.46
48200;BME280;33990;44.602;10.976;2023-05-08T12:03:23;101305.59;;;22.45;56.84
48200;BME280;33990;44.602;10.976;2023-05-08T12:05:58;101295.78;;;22.44;58.03
48200;BME280;33990;44.602;10.976;2023-05-08T12:08:25;101288.56;;;22.44;58.02
48200;BME280;33990;44.602;10.976;2023-05-08T12:10:57;101297.50;;;22.45;56.29
48200;BME280;33990;44.602;10.976;2023-05-08T12:13:28;101294.50;;;22.48;54.88
48200;BME280;33990;44.602;10.976;2023-05-08T12:15:59;101288.84;;;22.51;56.53
48200;BME280;33990;44.602;10.976;2023-05-08T12:18:27;101288.72;;;22.53;56.88
48200;BME280;33990;44.602;10.976;2023-05-08T12:20:59;101287.84;;;22.52;56.74
48200;BME280;33990;44.602;10.976;2023-05-08T12:23:28;101291.41;;;22.53;55.63
48200;BME280;33990;44.602;10.976;2023-05-08T12:25:59;101288.56;;;22.54;55.66
48200;BME280;33990;44.602;10.976;2023-05-08T12:28:27;101294.66;;;22.56;56.50
48200;BME280;33990;44.602;10.976;2023-05-08T12:30:55;101298.34;;;22.55;56.58
48200;BME280;33990;44.602;10.976;2023-05-08T12:33:22;101290.13;;;22.57;56.75
48200;BME280;33990;44.602;10.976;2023-05-08T12:35:50;101292.09;;;22.55;55.56
48200;BME280;33990;44.602;10.976;2023-05-08T12:38:17;101282.44;;;22.52;55.56
48200;BME280;33990;44.602;10.976;2023-05-08T12:40:46;101284.44;;;22.50;54.96
48200;BME280;33990;44.602;10.976;2023-05-08T12:43:33;101283.72;;;22.48;55.28
48200;BME280;33990;44.602;10.976;2023-05-08T12:46:02;101276.63;;;22.47;55.50
48200;BME280;33990;44.602;10.976;2023-05-08T12:48:30;101280.16;;;22.48;54.92
48200;BME280;33990;44.602;10.976;2023-05-08T12:51:02;101270.22;;;22.48;55.85
48200;BME280;33990;44.602;10.976;2023-05-08T12:53:31;101279.03;;;22.50;56.76
48200;BME280;33990;44.602;10.976;2023-05-08T12:56:03;101280.75;;;22.51;57.16
48200;BME280;33990;44.602;10.976;2023-05-08T12:58:32;101284.28;;;22.52;57.18
48200;BME280;33990;44.602;10.976;2023-05-08T13:01:04;101272.66;;;22.51;56.93
48200;BME280;33990;44.602;10.976;2023-05-08T13:03:32;101278.88;;;22.52;57.01
48200;BME280;33990;44.602;10.976;2023-05-08T13:06:00;101269.94;;;22.51;57.16
48200;BME280;33990;44.602;10.976;2023-05-08T13:08:35;101273.50;;;22.52;56.80
48200;BME280;33990;44.602;10.976;2023-05-08T13:11:05;101274.50;;;22.51;56.86
48200;BME280;33990;44.602;10.976;2023-05-08T13:13:35;101261.00;;;22.51;56.72
48200;BME280;33990;44.602;10.976;2023-05-08T13:16:04;101254.75;;;22.50;56.03
48200;BME280;33990;44.602;10.976;2023-05-08T13:18:32;101256.72;;;22.48;55.44
48200;BME280;33990;44.602;10.976;2023-05-08T13:21:02;101258.59;;;22.48;55.41
48200;BME280;33990;44.602;10.976;2023-05-08T13:23:29;101256.03;;;22.46;55.47
48200;BME280;33990;44.602;10.976;2023-05-08T13:25:57;101249.63;;;22.47;55.25
48200;BME280;33990;44.602;10.976;2023-05-08T13:28:24;101256.72;;;22.48;56.23
48200;BME280;33990;44.602;10.976;2023-05-08T13:30:51;101257.47;;;22.50;56.38
48200;BME280;33990;44.602;10.976;2023-05-08T13:33:18;101245.81;;;22.50;55.84
48200;BME280;33990;44.602;10.976;2023-05-08T13:35:47;101250.38;;;22.49;56.02
48200;BME280;33990;44.602;10.976;2023-05-08T13:38:14;101247.50;;;22.51;56.75
48200;BME280;33990;44.602;10.976;2023-05-08T13:40:41;101238.41;;;22.52;56.73
48200;BME280;33990;44.602;10.976;2023-05-08T13:43:09;101244.66;;;22.52;57.14
48200;BME280;33990;44.602;10.976;2023-05-08T13:45:36;101248.09;;;22.54;56.59
48200;BME280;33990;44.602;10.976;2023-05-08T13:48:04;101245.38;;;22.54;56.67